Time;durP1;ratioP1;P1;durP2;ratioP2;P2;SDS_P1;SDS_P2;PMS_P1;PMS_P2;Temp;Humidity;BMP_temperature;BMP_pressure;BME280_temperature;BME280_humidity;BME280_pressure;Samples;Min_cycle;Max_cycle;Signal;HPM_P1;HPM_P2
2022/02/02 00:02:30;;;;;;;27.15;18.35;;;;;;;1.11;79.28;95599.47;5092778;28;20051;-62
2022/02/02 00:05:06;;;;;;;9.15;6.07;;;;;;;1.13;79.38;95597.75;5091419;28;20118;-62
2022/02/02 00:07:40;;;;;;;8.93;6.07;;;;;;;1.15;79.03;95595.16;5092752;28;20032;-62
2022/02/02 00:10:33;;;;;;;6.75;5.43;;;;;;;1.16;79.27;95595.97;5092605;28;20583;-62
2022/02/02 00:13:01;;;;;;;5.15;4.40;;;;;;;1.13;79.08;95592.59;5092410;28;20116;-62
2022/02/02 00:18:30;;;;;;;5.75;4.63;;;;;;;1.05;79.32;95601.31;5092616;28;20385;-62
2022/02/02 00:20:58;;;;;;;6.70;4.55;;;;;;;1.06;79.27;95603.00;5093674;28;20112;-62
2022/02/02 00:23:29;;;;;;;9.30;4.35;;;;;;;1.07;79.39;95602.13;5096196;28;20032;-62
2022/02/02 00:26:01;;;;;;;6.80;4.43;;;;;;;1.09;79.14;95611.53;5096105;28;20042;-62
2022/02/02 00:28:31;;;;;;;6.80;4.40;;;;;;;1.09;79.40;95602.97;5095966;28;20040;-62
2022/02/02 00:31:02;;;;;;;5.72;4.57;;;;;;;1.06;79.04;95613.31;5096018;28;20131;-63
2022/02/02 00:33:32;;;;;;;6.82;5.30;;;;;;;1.05;79.04;95606.47;5094723;28;20050;-62
2022/02/02 00:36:04;;;;;;;5.70;3.97;;;;;;;1.03;78.83;95613.34;5095968;28;20104;-62
2022/02/02 00:38:30;;;;;;;6.00;3.28;;;;;;;0.92;78.72;95608.34;5095923;28;20394;-61
2022/02/02 00:40:56;;;;;;;5.50;3.92;;;;;;;0.88;78.84;95603.25;5095938;28;20028;-62
2022/02/02 00:43:21;;;;;;;5.93;3.72;;;;;;;0.93;78.65;95594.63;5095756;28;20065;-62
2022/02/02 00:45:48;;;;;;;8.20;4.00;;;;;;;0.96;78.76;95587.69;5095632;28;20486;-62
2022/02/02 00:48:15;;;;;;;8.57;4.53;;;;;;;1.00;78.82;95580.78;5095596;28;20050;-61
2022/02/02 00:50:41;;;;;;;8.55;4.05;;;;;;;1.03;79.04;95582.44;5094431;28;20028;-62
2022/02/02 00:53:08;;;;;;;6.53;4.68;;;;;;;1.03;79.11;95575.56;5095618;28;20035;-62
2022/02/02 00:55:33;;;;;;;6.65;4.60;;;;;;;1.03;79.07;95570.44;5095462;28;20051;-61
2022/02/02 00:58:00;;;;;;;6.82;4.38;;;;;;;1.05;79.18;95562.69;5094269;28;20107;-62
2022/02/02 01:00:26;;;;;;;7.13;5.20;;;;;;;1.07;79.14;95553.19;5095569;28;20013;-62
2022/02/02 01:02:52;;;;;;;4.70;3.22;;;;;;;1.07;78.52;95548.03;5095396;28;20039;-62
2022/02/02 01:05:17;;;;;;;4.80;3.97;;;;;;;1.05;78.68;95549.78;5095367;28;20028;-62
2022/02/02 01:10:17;;;;;;;7.90;4.90;;;;;;;0.93;79.07;95561.16;5095304;28;20489;-61
2022/02/02 01:21:01;;;;;;;8.77;4.93;;;;;;;0.93;78.98;95559.41;5094966;28;20032;-62
2022/02/02 01:28:40;;;;;;;4.82;4.10;;;;;;;0.96;78.26;95561.09;5095108;28;20489;-62
2022/02/02 01:31:07;;;;;;;7.85;4.75;;;;;;;0.88;78.60;95549.16;5094752;28;20485;-62
2022/02/02 01:33:32;;;;;;;4.90;4.25;;;;;;;0.88;78.86;95546.59;5094779;28;20548;-61
2022/02/02 01:35:59;;;;;;;5.75;4.38;;;;;;;0.84;78.94;95547.53;5094826;28;20145;-61
2022/02/02 01:38:28;;;;;;;5.88;4.25;;;;;;;0.84;79.32;95538.97;5094771;28;20119;-62
2022/02/02 01:41:01;;;;;;;6.32;4.40;;;;;;;0.87;79.45;95542.31;5094635;28;20103;-62
2022/02/02 01:43:34;;;;;;;6.05;4.32;;;;;;;0.90;79.19;95543.16;5094633;28;20036;-62
2022/02/02 01:46:08;;;;;;;6.38;4.45;;;;;;;0.89;79.22;95542.31;5094601;28;20110;-61
2022/02/02 01:48:57;;;;;;;5.78;3.85;;;;;;;0.88;79.28;95546.59;5094433;28;20390;-61
2022/02/02 01:56:16;;;;;;;11.48;5.00;;;;;;;0.89;79.60;95537.16;5094459;28;20129;-61
2022/02/02 02:01:40;;;;;;;9.15;5.43;;;;;;;0.94;79.26;95532.78;5071144;28;20075;-62
2022/02/02 02:04:06;;;;;;;8.38;5.32;;;;;;;0.94;79.28;95521.63;5094214;28;20063;-62
2022/02/02 02:06:31;;;;;;;9.50;5.07;;;;;;;0.98;79.00;95498.38;5094132;28;20031;-61
2022/02/02 02:08:57;;;;;;;11.43;6.13;;;;;;;0.98;78.87;95512.97;5094015;28;20048;-62
2022/02/02 02:11:23;;;;;;;11.23;6.03;;;;;;;1.01;78.84;95510.34;5094098;28;20020;-62
2022/02/02 02:16:30;;;;;;;7.90;5.47;;;;;;;1.00;79.05;95495.78;5094131;28;20031;-61
2022/02/02 02:18:57;;;;;;;9.43;5.30;;;;;;;1.00;79.09;95494.03;5093811;28;20024;-62
2022/02/02 02:21:24;;;;;;;7.35;4.68;;;;;;;0.96;79.08;95494.97;5093567;28;20032;-61
2022/02/02 02:23:50;;;;;;;10.48;6.03;;;;;;;0.99;79.11;95491.47;5093881;28;20016;-62
2022/02/02 02:26:25;;;;;;;9.50;6.50;;;;;;;0.98;79.29;95482.91;5093982;28;20065;-61
2022/02/02 02:39:38;;;;;;;;;;;;;;;0.97;79.02;95465.75;5094119;28;20432;-62
2022/02/02 02:56:06;;;;;;;8.60;6.82;;;;;;;0.82;79.09;95466.88;5093432;28;20035;-62
2022/02/02 03:56:25;;;;;;;7.30;5.50;;;;;;;0.76;79.19;95418.06;5094274;28;20402;-62
2022/02/02 04:09:28;;;;;;;6.68;5.13;;;;;;;0.80;79.60;95403.41;5096453;28;20047;-61
2022/02/02 04:12:05;;;;;;;6.38;4.80;;;;;;;0.82;79.57;95406.81;5096501;28;20024;-62
2022/02/02 04:57:29;;;;;;;9.35;5.95;;;;;;;0.76;79.15;95456.69;5095512;28;20031;-62
2022/02/02 05:03:29;;;;;;;7.68;5.82;;;;;;;0.75;79.11;95457.53;5095550;28;20093;-61
2022/02/02 05:08:11;;;;;;;8.07;5.53;;;;;;;0.78;78.97;95454.09;5095271;28;20035;-62
2022/02/02 05:53:36;;;;;;;13.45;9.02;;;;;;;0.53;80.34;95463.03;5094503;28;20485;-61
2022/02/02 05:56:04;;;;;;;12.63;8.30;;;;;;;0.54;80.32;95461.31;5094311;28;20028;-61
2022/02/02 05:58:31;;;;;;;18.05;8.65;;;;;;;0.51;80.43;95457.06;5094486;28;20386;-61
2022/02/02 06:00:59;;;;;;;14.27;9.32;;;;;;;0.52;80.61;95461.34;5094443;28;20016;-61
2022/02/02 06:03:50;;;;;;;14.13;9.30;;;;;;;0.59;80.78;95472.38;5094342;28;20043;-61
2022/02/02 06:06:17;;;;;;;12.07;8.43;;;;;;;0.62;80.70;95472.34;5094174;28;20389;-61
2022/02/02 06:08:44;;;;;;;13.20;8.95;;;;;;;0.64;80.68;95478.34;5094120;28;20049;-62
2022/02/02 06:11:16;;;;;;;15.48;9.15;;;;;;;0.73;80.58;95480.72;5094086;28;20031;-62
2022/02/02 06:13:46;;;;;;;15.18;9.65;;;;;;;0.80;80.52;95475.50;5094158;28;20024;-62
2022/02/02 06:16:12;;;;;;;13.73;9.52;;;;;;;0.82;80.13;95474.63;5094191;28;20024;-62
2022/02/02 06:18:38;;;;;;;13.13;9.30;;;;;;;0.90;79.99;95482.19;5093174;28;20024;-62
2022/02/02 06:21:07;;;;;;;12.23;8.85;;;;;;;0.92;79.91;95479.59;5093847;28;20039;-62
2022/02/02 06:23:43;;;;;;;15.10;8.95;;;;;;;0.94;79.89;95483.00;5093960;28;20016;-62
2022/02/02 06:26:16;;;;;;;11.40;7.65;;;;;;;0.96;80.05;95486.41;5093930;28;20034;-62
2022/02/02 06:28:46;;;;;;;9.73;7.43;;;;;;;0.97;80.05;95483.78;5093846;28;20032;-62
2022/02/02 06:31:14;;;;;;;10.73;7.90;;;;;;;1.06;79.55;95481.94;5093798;28;20474;-62
2022/02/02 06:33:41;;;;;;;9.95;7.45;;;;;;;1.08;79.33;95483.59;5093962;28;20050;-62
2022/02/02 06:36:11;;;;;;;12.73;8.15;;;;;;;1.10;79.28;95476.72;5093675;28;20075;-62
2022/02/02 06:38:41;;;;;;;;;;;;;;;1.10;79.42;95484.44;5094205;28;20020;-62
2022/02/02 06:41:08;;;;;;;12.50;7.25;;;;;;;1.10;79.22;95491.31;5093569;28;19961;-62
2022/02/02 06:43:35;;;;;;;11.13;8.13;;;;;;;1.12;79.45;95489.56;5093514;28;20433;-62
2022/02/02 06:46:02;;;;;;;14.43;8.82;;;;;;;1.11;79.42;95486.13;5093525;28;20043;-62
2022/02/02 06:48:30;;;;;;;15.23;9.65;;;;;;;1.13;79.19;95479.22;5093349;28;20024;-62
2022/02/02 06:51:06;;;;;;;20.20;11.52;;;;;;;1.13;79.33;95478.38;5093495;28;20066;-62
2022/02/02 06:53:43;;;;;;;21.00;11.40;;;;;;;1.19;79.04;95479.97;5093405;28;20483;-61
2022/02/02 06:59:21;;;;;;;20.92;13.05;;;;;;;1.22;79.32;95480.78;5093541;28;20026;-62
2022/02/02 07:07:28;;;;;;;20.40;13.27;;;;;;;1.31;78.60;95478.91;5093303;28;20436;-61
2022/02/02 07:13:02;;;;;;;17.27;11.20;;;;;;;1.36;78.84;95477.13;5093318;28;20061;-62
2022/02/02 07:18:07;;;;;;;15.43;10.50;;;;;;;1.46;78.39;95470.91;5093216;28;20115;-62
2022/02/02 07:26:32;;;;;;;30.05;21.67;;;;;;;1.58;78.02;95476.69;5070055;28;20108;-62
2022/02/02 07:32:06;;;;;;;26.48;17.48;;;;;;;1.64;77.85;95487.75;5097246;28;20020;-62
2022/02/02 07:35:01;;;;;;;18.90;13.25;;;;;;;1.66;77.81;95482.56;5097180;28;20393;-62
2022/02/02 07:37:30;;;;;;;19.35;12.35;;;;;;;1.72;77.97;95484.16;5097192;28;20062;-62
2022/02/02 07:39:59;;;;;;;17.30;13.55;;;;;;;1.80;77.65;95491.75;5097022;28;20081;-62
2022/02/02 07:42:26;;;;;;;41.00;27.08;;;;;;;1.82;77.43;95489.97;5097031;28;20454;-62
2022/02/02 07:44:58;;;;;;;48.33;30.58;;;;;;;1.88;77.19;95490.72;5097002;28;20032;-62
2022/02/02 07:47:26;;;;;;;21.05;14.70;;;;;;;1.95;76.93;95498.31;5096983;28;20073;-61
2022/02/02 07:49:54;;;;;;;16.08;11.57;;;;;;;1.96;76.71;95494.88;5096900;28;20036;-62
2022/02/02 07:52:20;;;;;;;18.00;11.63;;;;;;;1.93;77.15;95493.22;5096881;28;20435;-62
2022/02/02 07:54:49;;;;;;;18.02;11.88;;;;;;;1.94;77.01;95500.06;5096778;28;20049;-62
2022/02/02 07:57:19;;;;;;;16.92;11.40;;;;;;;1.93;76.80;95506.09;5096817;28;20499;-62
2022/02/02 07:59:54;;;;;;;15.30;12.05;;;;;;;1.97;76.74;95506.88;5096853;28;20024;-62
2022/02/02 08:02:26;;;;;;;28.70;21.95;;;;;;;2.01;76.99;95503.34;5096811;28;20028;-62
2022/02/02 08:04:52;;;;;;;23.48;18.63;;;;;;;2.05;76.73;95501.56;5096683;28;20042;-62
2022/02/02 08:07:29;;;;;;;22.55;16.27;;;;;;;2.10;76.27;95500.59;5096534;28;20099;-62
2022/02/02 08:10:07;;;;;;;21.42;14.50;;;;;;;2.17;76.43;95509.06;5096583;28;20031;-62
2022/02/02 08:12:45;;;;;;;15.45;10.25;;;;;;;2.18;75.98;95504.72;5096489;28;20115;-62
2022/02/02 08:15:13;;;;;;;17.20;12.18;;;;;;;2.21;75.94;95509.81;5096440;28;20462;-62
2022/02/02 08:17:40;;;;;;;21.55;14.45;;;;;;;2.23;75.70;95515.81;5096321;28;20461;-62
2022/02/02 08:20:06;;;;;;;19.83;14.57;;;;;;;2.26;75.78;95523.50;5096212;28;20024;-62
2022/02/02 08:22:32;;;;;;;21.05;14.95;;;;;;;2.32;75.73;95522.50;5096029;28;20119;-62
2022/02/02 08:24:58;;;;;;;19.15;14.50;;;;;;;2.34;75.44;95513.84;5096296;28;20482;-62
2022/02/02 08:27:24;;;;;;;14.90;10.90;;;;;;;2.36;75.78;95513.81;5096256;28;20106;-62
2022/02/02 08:29:49;;;;;;;11.32;8.43;;;;;;;2.41;75.32;95514.56;5095973;28;20114;-61
2022/02/02 08:32:16;;;;;;;14.77;9.90;;;;;;;2.42;75.09;95511.09;5094787;28;20066;-62
2022/02/02 08:34:47;;;;;;;10.50;8.13;;;;;;;2.40;75.12;95508.56;5096032;28;20043;-62
2022/02/02 08:37:13;;;;;;;11.68;9.32;;;;;;;2.35;75.02;95522.44;5096066;28;20056;-62
2022/02/02 08:42:07;;;;;;;10.77;8.25;;;;;;;2.44;75.15;95517.06;5095025;28;20031;-62
2022/02/02 08:47:32;;;;;;;9.95;7.18;;;;;;;2.48;75.28;95525.59;5072597;28;20032;-61
2022/02/02 08:49:59;;;;;;;10.20;7.30;;;;;;;2.43;75.25;95522.25;5095696;28;20028;-62
2022/02/02 08:52:46;;;;;;;12.52;6.68;;;;;;;2.25;74.45;95520.06;5095843;28;20505;-62
2022/02/02 08:55:11;;;;;;;8.68;5.70;;;;;;;2.26;74.82;95523.50;5095507;28;20037;-62
2022/02/02 09:00:11;;;;;;;8.40;6.65;;;;;;;2.32;74.58;95515.59;5095531;28;20115;-61
2022/02/02 09:02:39;;;;;;;6.13;5.18;;;;;;;2.43;75.04;95530.84;5095607;28;20450;-62
2022/02/02 09:05:23;;;;;;;6.20;4.93;;;;;;;2.51;74.78;95531.56;5095474;28;20024;-61
2022/02/02 09:07:49;;;;;;;4.45;3.45;;;;;;;2.58;73.47;95529.66;5095458;28;20029;-61
2022/02/02 09:19:57;;;;;;;3.78;2.75;;;;;;;2.55;73.22;95537.47;5095289;28;20466;-62
2022/02/02 09:24:06;;;;;;;3.35;3.05;;;;;;;2.25;73.38;95529.53;5095188;28;20020;-61
2022/02/02 09:32:06;;;;;;;3.83;3.10;;;;;;;2.42;74.66;95531.75;5095019;28;20550;-62
2022/02/02 09:34:31;;;;;;;3.42;2.60;;;;;;;2.38;74.78;95519.81;5094919;28;20028;-62
2022/02/02 09:36:57;;;;;;;3.42;3.00;;;;;;;2.36;74.96;95524.13;5094830;28;20024;-62
2022/02/02 09:39:31;;;;;;;4.30;2.92;;;;;;;2.23;72.65;95514.06;5093709;28;20028;-62
2022/02/02 09:42:06;;;;;;;3.08;2.60;;;;;;;2.04;72.78;95516.19;5094756;28;20462;-62
2022/02/02 09:44:37;;;;;;;3.17;2.58;;;;;;;2.02;73.59;95507.66;5094808;28;20109;-62
2022/02/02 09:47:15;;;;;;;3.72;2.50;;;;;;;2.07;74.10;95510.09;5094736;28;20060;-62
2022/02/02 09:49:55;;;;;;;3.95;3.55;;;;;;;1.95;73.08;95506.91;5094605;28;20385;-62
2022/02/02 09:52:24;;;;;;;4.15;3.60;;;;;;;1.96;73.88;95505.19;5094651;28;20039;-62
2022/02/02 09:55:06;;;;;;;5.95;4.57;;;;;;;1.82;74.57;95500.31;5094395;28;20024;-62
2022/02/02 09:58:15;;;;;;;5.53;3.40;;;;;;;1.77;74.54;95492.66;5094572;28;20028;-62
2022/02/02 10:05:59;;;;;;;6.20;4.60;;;;;;;1.60;74.90;95488.66;5094330;28;20036;-62
2022/02/02 10:08:51;;;;;;;6.32;5.13;;;;;;;1.46;74.91;95488.94;5094096;28;20089;-62
2022/02/02 10:14:33;;;;;;;4.75;4.05;;;;;;;1.44;75.28;95471.81;5094474;28;20531;-62
2022/02/02 10:17:04;;;;;;;4.60;3.88;;;;;;;1.46;75.99;95464.91;5086267;28;20040;-62
2022/02/02 10:19:36;;;;;;;6.60;4.82;;;;;;;1.44;75.93;95475.22;5094083;28;20036;-62
2022/02/02 10:22:19;;;;;;;4.90;4.40;;;;;;;1.54;75.80;95464.75;5093821;28;20040;-62
2022/02/02 10:24:46;;;;;;;5.97;4.25;;;;;;;1.59;76.39;95463.78;5093906;28;20024;-62
2022/02/02 10:27:23;;;;;;;5.82;4.55;;;;;;;1.48;76.40;95452.84;5093929;28;20036;-62
2022/02/02 10:29:49;;;;;;;4.75;3.45;;;;;;;1.51;75.48;95448.44;5093841;28;20028;-62
2022/02/02 10:32:35;;;;;;;5.78;4.03;;;;;;;1.44;74.94;95458.94;5093831;28;20027;-62
2022/02/02 10:35:01;;;;;;;5.55;3.83;;;;;;;1.47;75.20;95454.56;5093697;28;20059;-61
2022/02/02 10:37:30;;;;;;;5.00;3.90;;;;;;;1.46;75.31;95452.00;5093693;28;20081;-62
2022/02/02 10:39:56;;;;;;;7.18;3.90;;;;;;;1.44;75.97;95454.63;5093706;28;20393;-62
2022/02/02 10:42:44;;;;;;;7.13;4.30;;;;;;;1.35;75.66;95445.34;5093710;28;20028;-62
2022/02/02 10:45:25;;;;;;;6.50;5.32;;;;;;;1.34;76.13;95442.78;5093504;28;20031;-62
2022/02/02 10:48:03;;;;;;;6.45;4.75;;;;;;;1.32;76.45;95453.13;5093582;28;20474;-62
2022/02/02 10:50:34;;;;;;;6.95;4.60;;;;;;;1.34;75.88;95450.50;5093481;28;20059;-61
2022/02/02 10:56:15;;;;;;;7.43;4.75;;;;;;;1.18;76.65;95444.81;5093534;28;20024;-62
2022/02/02 11:06:37;;;;;;;5.95;4.93;;;;;;;1.38;77.25;95444.41;5093664;28;20386;-62
2022/02/02 11:09:08;;;;;;;6.32;4.53;;;;;;;1.43;76.38;95445.19;5093267;28;20040;-62
2022/02/02 11:11:40;;;;;;;6.57;5.15;;;;;;;1.36;75.35;95451.34;5093335;28;20030;-62
2022/02/02 11:14:13;;;;;;;6.47;4.78;;;;;;;1.41;76.10;95453.84;5093179;28;20382;-62
2022/02/02 11:16:47;;;;;;;6.55;4.65;;;;;;;1.49;75.35;95450.22;5093322;28;20082;-62
2022/02/02 11:19:16;;;;;;;6.05;4.50;;;;;;;1.37;75.46;95447.88;5093302;28;20029;-62
2022/02/02 11:21:43;;;;;;;7.82;5.88;;;;;;;1.47;76.22;95443.38;5093131;28;20071;-62
2022/02/02 11:24:17;;;;;;;8.07;5.72;;;;;;;1.48;76.20;95438.19;5093325;28;20378;-62
2022/02/02 11:26:47;;;;;;;9.05;5.93;;;;;;;1.61;76.12;95445.69;5093288;28;20021;-62
2022/02/02 11:29:42;;;;;;;6.90;5.57;;;;;;;1.59;75.71;95450.88;5093087;28;20028;-62
2022/02/02 11:32:10;;;;;;;6.80;4.93;;;;;;;1.66;75.53;95451.63;5093055;28;20047;-61
2022/02/02 11:34:35;;;;;;;9.10;5.75;;;;;;;1.74;75.30;95443.72;5092977;28;20359;-62
2022/02/02 11:37:04;;;;;;;8.75;6.55;;;;;;;1.86;74.87;95443.47;5093009;28;20023;-62
2022/02/02 11:39:38;;;;;;;7.18;5.75;;;;;;;1.98;75.09;95449.22;5093084;28;20028;-63
2022/02/02 11:42:18;;;;;;;6.97;5.38;;;;;;;2.01;74.60;95446.59;5092958;28;20031;-62
2022/02/02 11:44:52;;;;;;;6.75;4.97;;;;;;;2.02;73.70;95436.25;5093035;28;20077;-62
2022/02/02 11:47:40;;;;;;;8.23;5.95;;;;;;;2.13;73.91;95436.00;5092830;28;20028;-62
2022/02/02 11:50:07;;;;;;;11.57;6.70;;;;;;;2.31;72.85;95426.16;5092737;28;20036;-62
2022/02/02 11:52:32;;;;;;;11.65;8.15;;;;;;;2.44;73.28;95431.88;5092954;28;20024;-62
2022/02/02 11:54:58;;;;;;;16.45;10.55;;;;;;;2.43;73.99;95437.06;5092975;28;20032;-62
2022/02/02 11:57:33;;;;;;;10.98;7.30;;;;;;;2.49;74.41;95434.34;5092852;28;20386;-62
2022/02/02 12:03:12;;;;;;;12.05;8.00;;;;;;;2.70;73.91;95424.38;5092837;28;20027;-62
2022/02/02 12:06:25;;;;;;;13.82;9.45;;;;;;;2.71;73.74;95432.09;5092738;28;20085;-61
2022/02/02 12:08:55;;;;;;;15.50;9.43;;;;;;;2.60;74.13;95428.94;5089487;28;20115;-61
2022/02/02 12:47:47;;;;;;;7.22;4.78;;;;;;;3.58;71.17;95431.56;5096179;28;20058;-62
2022/02/02 12:56:26;;;;;;;8.07;6.45;;;;;;;3.31;72.25;95431.44;5096139;28;20047;-62
2022/02/02 12:59:22;;;;;;;7.35;6.25;;;;;;;3.29;72.53;95425.47;5095747;28;20028;-62
2022/02/02 13:02:02;;;;;;;8.48;6.00;;;;;;;3.26;72.79;95426.41;5095647;28;20028;-63
2022/02/02 13:04:30;;;;;;;6.72;5.60;;;;;;;3.31;72.71;95415.94;5095563;28;20137;-62
2022/02/02 13:07:09;;;;;;;7.18;5.38;;;;;;;3.39;72.56;95419.16;5095856;28;20474;-63
2022/02/02 13:09:36;;;;;;;6.43;4.88;;;;;;;3.49;71.75;95411.16;5095484;28;20125;-62
2022/02/02 13:12:21;;;;;;;5.38;4.65;;;;;;;3.61;71.23;95418.56;5095393;28;20474;-62
2022/02/02 13:17:47;;;;;;;5.95;4.97;;;;;;;3.54;71.66;95419.63;5089576;28;20040;-63
2022/02/02 13:20:16;;;;;;;4.38;3.80;;;;;;;3.61;71.28;95421.16;5095263;28;20028;-62
2022/02/02 13:22:48;;;;;;;9.98;7.25;;;;;;;3.69;70.97;95417.47;5094919;28;20076;-62
2022/02/02 13:25:29;;;;;;;12.70;8.70;;;;;;;3.75;70.75;95417.31;5095009;28;20028;-62
2022/02/02 13:27:57;;;;;;;12.10;9.27;;;;;;;3.78;70.87;95425.00;5094935;28;20447;-62
2022/02/02 13:30:54;;;;;;;9.98;7.57;;;;;;;3.84;70.52;95427.41;5095078;28;20035;-62
2022/02/02 13:33:29;;;;;;;7.93;5.55;;;;;;;3.72;70.83;95425.16;5095110;28;20028;-62
2022/02/02 13:36:33;;;;;;;6.72;5.28;;;;;;;3.65;71.10;95417.56;5093600;28;20032;-62
2022/02/02 13:44:40;;;;;;;8.30;6.72;;;;;;;3.67;70.62;95426.16;5095150;28;20035;-62
2022/02/02 13:50:24;;;;;;;10.10;6.65;;;;;;;3.71;70.96;95419.16;5094562;28;20064;-62
2022/02/02 13:52:53;;;;;;;7.15;6.07;;;;;;;3.74;70.66;95415.63;5094305;28;20028;-62
2022/02/02 13:55:42;;;;;;;7.57;5.75;;;;;;;3.74;70.75;95415.63;5094646;28;20028;-62
2022/02/02 13:59:02;;;;;;;7.70;5.72;;;;;;;3.76;70.68;95421.59;5094581;28;20492;-62
2022/02/02 14:09:06;;;;;;;7.00;4.95;;;;;;;3.55;71.08;95426.47;5094404;28;20470;-62
2022/02/02 14:33:46;;;;;;;5.63;4.60;;;;;;;2.68;74.19;95423.59;5031744;28;20048;-62
2022/02/02 14:36:16;;;;;;;7.22;6.00;;;;;;;2.59;74.47;95420.31;5031494;28;20025;-62
2022/02/02 14:38:50;;;;;;;7.53;4.95;;;;;;;2.48;75.22;95425.78;5063291;28;20048;-62
2022/02/02 14:41:29;;;;;;;5.88;4.85;;;;;;;2.45;75.60;95425.84;5093530;28;20397;-61
2022/02/02 14:44:01;;;;;;;7.05;4.85;;;;;;;2.49;75.89;95426.59;5093766;28;20028;-61
2022/02/02 14:46:34;;;;;;;6.00;4.90;;;;;;;2.48;75.49;95422.34;5093673;28;20028;-62
2022/02/02 14:49:42;;;;;;;5.85;5.10;;;;;;;2.43;75.79;95419.84;5093581;28;20058;-62
2022/02/02 14:52:06;;;;;;;4.97;4.03;;;;;;;2.44;75.89;95423.28;5086674;28;20032;-61
2022/02/02 15:05:34;;;;;;;4.80;4.30;;;;;;;2.29;75.71;95425.34;5093417;28;20085;-61
2022/02/02 15:29:44;;;;;;;7.10;6.30;;;;;;;2.11;76.50;95424.88;5093346;28;20097;-62
2022/02/02 15:32:10;;;;;;;6.30;5.03;;;;;;;2.08;76.56;95414.63;5093117;28;20489;-62
2022/02/02 15:39:44;;;;;;;5.70;4.70;;;;;;;1.98;76.58;95418.28;5093122;28;20440;-62
2022/02/02 16:01:38;;;;;;;8.15;6.75;;;;;;;1.64;77.50;95438.78;5096852;28;20089;-61
2022/02/02 16:03:32;;;;;;;7.57;6.47;;;;;;;1.63;77.91;95439.63;5096238;28;20043;-62
2022/02/02 16:06:08;;;;;;;10.23;7.45;;;;;;;1.56;78.02;95445.78;5096574;28;20036;-62
2022/02/02 16:08:36;;;;;;;10.27;7.45;;;;;;;1.55;78.09;95448.41;5096586;28;20043;-61
2022/02/02 16:11:15;;;;;;;8.50;7.22;;;;;;;1.54;78.26;95460.47;5095368;28;20131;-61
2022/02/02 16:13:45;;;;;;;8.95;6.57;;;;;;;1.48;78.54;95456.25;5096552;28;20028;-62
2022/02/02 16:18:44;;;;;;;8.02;6.13;;;;;;;1.51;78.44;95481.13;5096497;28;20104;-61
2022/02/02 16:32:32;;;;;;;11.35;9.45;;;;;;;1.54;78.68;95477.63;5096653;28;20133;-62
2022/02/02 16:37:36;;;;;;;15.20;7.90;;;;;;;1.51;78.51;95481.97;5096138;28;20043;-62
2022/02/02 16:40:05;;;;;;;8.63;7.18;;;;;;;1.48;78.81;95484.59;5095967;28;20034;-61
2022/02/02 16:45:16;;;;;;;8.63;6.47;;;;;;;1.37;79.50;95486.53;5096270;28;20093;-61
2022/02/02 16:47:42;;;;;;;8.88;7.10;;;;;;;1.38;79.50;95493.38;5095847;28;20063;-62
2022/02/02 16:50:13;;;;;;;8.60;6.95;;;;;;;1.35;79.62;95496.88;5095813;28;20115;-62
2022/02/02 16:52:39;;;;;;;7.47;6.40;;;;;;;1.33;79.65;95503.81;5095895;28;20451;-62
2022/02/02 16:55:12;;;;;;;8.18;6.68;;;;;;;1.31;79.86;95505.53;5095689;28;20505;-62
2022/02/02 17:35:09;;;;;;;;;;;;;;;1.33;79.62;95536.44;5095554;28;20055;-62
2022/02/02 17:40:19;;;;;;;11.90;8.57;;;;;;;1.23;80.29;95541.75;5094871;28;20032;-62
2022/02/02 17:56:33;;;;;;;16.00;11.63;;;;;;;1.29;79.53;95552.84;5094888;28;20035;-62
2022/02/02 18:20:42;;;;;;;31.48;18.70;;;;;;;1.16;80.25;95539.28;5093935;28;20069;-62
2022/02/02 18:23:20;;;;;;;41.08;21.02;;;;;;;1.17;80.29;95549.56;5094019;28;20054;-62
2022/02/02 18:28:34;;;;;;;26.90;15.68;;;;;;;1.13;80.44;95530.75;5093930;28;20058;-62
2022/02/02 18:31:32;;;;;;;23.23;15.13;;;;;;;1.13;80.09;95532.47;5093841;28;20493;-61
2022/02/02 18:36:42;;;;;;;18.15;12.75;;;;;;;1.09;80.54;95534.25;5093952;28;20035;-62
2022/02/02 18:44:43;;;;;;;17.30;12.30;;;;;;;1.08;80.57;95531.72;5094008;28;20035;-61
2022/02/02 18:47:21;;;;;;;12.35;8.77;;;;;;;1.06;80.23;95534.31;5093650;28;20032;-61
2022/02/02 18:58:06;;;;;;;18.75;11.35;;;;;;;1.11;80.37;95547.09;5093488;28;20118;-61
2022/02/02 20:12:47;;;;;;;32.17;20.13;;;;;;;0.75;81.05;95591.41;5096757;28;20032;-62
2022/02/02 20:15:14;;;;;;;27.75;18.05;;;;;;;0.74;81.02;95589.72;5095574;28;20121;-62
2022/02/02 20:17:41;;;;;;;24.27;17.13;;;;;;;0.75;81.12;95592.28;5096364;28;20035;-62
2022/02/02 20:20:18;;;;;;;20.52;15.27;;;;;;;0.75;80.97;95587.13;5096290;28;20405;-62
2022/02/02 20:22:44;;;;;;;25.10;16.88;;;;;;;0.70;80.97;95588.06;5096109;28;20145;-62
2022/02/02 20:25:13;;;;;;;25.63;17.30;;;;;;;0.71;81.29;95582.91;5096403;28;20020;-62
2022/02/02 20:27:41;;;;;;;31.42;21.10;;;;;;;0.56;81.80;95586.53;5096236;28;20454;-62
2022/02/02 20:30:10;;;;;;;27.45;18.90;;;;;;;0.62;81.56;95585.59;5096096;28;20085;-62
2022/02/02 20:32:36;;;;;;;48.05;21.23;;;;;;;0.60;81.83;95592.53;5096167;28;20027;-62
2022/02/02 20:35:03;;;;;;;35.35;21.58;;;;;;;0.61;81.68;95576.19;5096321;28;20103;-62
2022/02/02 20:37:28;;;;;;;54.78;21.05;;;;;;;0.61;81.58;95576.19;5095041;28;20378;-62
2022/02/02 20:45:08;;;;;;;38.10;21.83;;;;;;;0.50;82.14;95566.91;5095951;28;20032;-61
2022/02/02 21:06:57;;;;;;;31.38;18.67;;;;;;;0.49;81.32;95556.63;5095821;28;20077;-62
2022/02/02 21:14:44;;;;;;;19.15;11.93;;;;;;;0.47;81.04;95554.06;5095533;28;20028;-61
2022/02/02 21:17:18;;;;;;;19.80;10.35;;;;;;;0.48;80.54;95552.34;5095441;28;20028;-61
2022/02/02 21:22:17;;;;;;;11.60;7.80;;;;;;;0.48;80.09;95566.06;5095004;28;20465;-62
2022/02/02 21:29:40;;;;;;;24.20;13.23;;;;;;;0.49;79.53;95582.34;5095094;28;20038;-62
2022/02/02 21:32:06;;;;;;;22.30;13.07;;;;;;;0.45;79.50;95580.72;5094991;28;20070;-61
2022/02/02 21:34:32;;;;;;;20.38;12.65;;;;;;;0.44;79.31;95579.84;5095004;28;20026;-62
2022/02/02 21:37:03;;;;;;;20.05;12.18;;;;;;;0.50;79.08;95596.91;5094832;28;20028;-61
2022/02/02 21:39:31;;;;;;;17.05;10.82;;;;;;;0.48;79.07;95603.81;5094934;28;20036;-62
2022/02/02 21:41:57;;;;;;;28.77;12.05;;;;;;;0.46;79.36;95614.13;5094736;28;20016;-62
2022/02/02 21:44:24;;;;;;;18.98;9.98;;;;;;;0.45;79.66;95611.59;5094702;28;20437;-62
2022/02/02 21:46:50;;;;;;;16.67;10.32;;;;;;;0.43;79.53;95615.88;5094764;28;20032;-62
2022/02/02 21:49:19;;;;;;;20.10;10.73;;;;;;;0.39;79.36;95615.06;5094559;28;20057;-62
2022/02/02 21:52:09;;;;;;;14.05;8.95;;;;;;;0.27;79.25;95610.91;5094580;28;20024;-62
2022/02/02 21:54:32;;;;;;;14.98;9.63;;;;;;;0.21;79.53;95609.28;5094026;28;20394;-61
2022/02/02 21:56:59;;;;;;;13.98;8.30;;;;;;;0.15;79.77;95603.38;5094425;28;20382;-61
2022/02/02 21:59:25;;;;;;;11.95;8.07;;;;;;;0.09;79.80;95596.59;5094514;28;20062;-61
2022/02/02 22:01:52;;;;;;;11.90;6.57;;;;;;;0.06;79.55;95602.59;5094520;28;20482;-62
2022/02/02 22:04:17;;;;;;;9.35;6.50;;;;;;;-0.03;79.59;95598.41;5094373;28;20103;-62
2022/02/02 22:06:43;;;;;;;12.10;6.78;;;;;;;-0.09;80.12;95602.78;5094595;28;20099;-61
2022/02/02 22:09:09;;;;;;;9.25;6.57;;;;;;;-0.15;80.37;95590.84;5094284;28;20480;-62
2022/02/02 22:11:34;;;;;;;9.40;7.07;;;;;;;-0.15;80.19;95598.56;5094223;28;20024;-62
2022/02/02 22:14:09;;;;;;;10.60;6.25;;;;;;;-0.18;80.31;95594.28;5094254;28;20060;-61
2022/02/02 22:16:37;;;;;;;12.07;6.30;;;;;;;-0.17;80.43;95597.72;5094280;28;20063;-62
2022/02/02 22:19:03;;;;;;;8.43;6.07;;;;;;;-0.18;80.55;95604.56;5094115;28;20120;-62
2022/02/02 22:21:30;;;;;;;12.38;7.22;;;;;;;-0.15;80.37;95603.72;5093838;28;20127;-61
2022/02/02 22:23:55;;;;;;;10.85;6.45;;;;;;;-0.20;80.10;95613.16;5093963;28;20028;-61
2022/02/02 22:26:21;;;;;;;8.30;6.15;;;;;;;-0.17;80.36;95614.00;5094039;28;20033;-61
2022/02/02 22:28:47;;;;;;;9.02;5.90;;;;;;;-0.21;79.95;95612.31;5093905;28;20056;-61
2022/02/02 22:31:13;;;;;;;10.60;6.18;;;;;;;-0.18;79.90;95627.69;5093891;28;20063;-61
2022/02/02 22:33:39;;;;;;;10.57;6.63;;;;;;;-0.19;80.18;95635.44;5093841;28;20028;-62
2022/02/02 22:36:05;;;;;;;10.05;7.15;;;;;;;-0.24;80.11;95644.94;5093911;28;20020;-62
2022/02/02 22:38:31;;;;;;;18.20;8.52;;;;;;;-0.30;80.63;95640.69;5093786;28;20016;-61
2022/02/02 22:40:58;;;;;;;12.77;8.70;;;;;;;-0.31;81.22;95646.69;5093692;28;20016;-61
2022/02/02 22:43:27;;;;;;;12.93;8.18;;;;;;;-0.28;80.88;95636.38;5093593;28;20458;-62
2022/02/02 22:45:52;;;;;;;15.02;9.02;;;;;;;-0.30;81.26;95635.56;5093584;28;20055;-62